createdAt,value
2018-04-16T00:00:39.079Z,58.30
2018-04-16T00:03:07.769Z,58.98
2018-04-16T00:05:36.606Z,60.02
2018-04-16T00:08:04.985Z,59.38
2018-04-16T00:10:33.371Z,58.50
2018-04-16T00:13:01.775Z,59.02
2018-04-16T00:15:30.154Z,60.52
2018-04-16T00:17:58.599Z,59.68
2018-04-16T00:20:26.964Z,59.75
2018-04-16T00:22:55.392Z,59.47
2018-04-16T00:25:23.754Z,59.79
2018-04-16T00:27:52.132Z,59.04
2018-04-16T00:30:20.556Z,58.62
2018-04-16T00:32:54.604Z,58.86
2018-04-16T00:35:28.561Z,60.16
2018-04-16T00:38:02.584Z,58.36
2018-04-16T00:40:36.521Z,58.55
2018-04-16T00:43:10.461Z,58.73
2018-04-16T00:45:44.507Z,58.63
2018-04-16T00:48:18.517Z,57.67
2018-04-16T00:50:52.605Z,58.61
2018-04-16T00:53:26.471Z,58.40
2018-04-16T00:56:00.517Z,58.16
2018-04-16T01:01:36.722Z,58.84
2018-04-16T01:04:10.759Z,58.83
2018-04-16T01:06:44.712Z,59.93
2018-04-16T01:09:18.749Z,59.15
2018-04-16T01:11:52.906Z,59.81
2018-04-16T01:14:27.006Z,59.31
2018-04-16T01:17:00.927Z,58.12
2018-04-16T01:22:40.542Z,59.66
2018-04-16T01:25:14.458Z,59.47
2018-04-16T01:27:48.555Z,59.35
2018-04-16T01:30:22.683Z,59.77
2018-04-16T01:32:56.750Z,60.81
2018-04-16T01:38:35.152Z,59.34
2018-04-16T01:41:09.214Z,59.84
2018-04-16T01:43:43.307Z,59.74
2018-04-16T01:46:17.375Z,60.27
2018-04-16T01:51:53.813Z,60.08
2018-04-16T01:57:37.422Z,62.00
2018-04-16T02:00:11.379Z,62.28
2018-04-16T02:02:45.524Z,63.04
2018-04-16T02:08:22.000Z,63.53
2018-04-16T02:10:56.204Z,63.78
2018-04-16T02:13:30.139Z,63.71
2018-04-16T02:16:04.184Z,64.58
2018-04-16T02:18:38.120Z,64.79
2018-04-16T02:21:12.043Z,62.71
2018-04-16T02:23:46.034Z,62.31
2018-04-16T02:26:19.959Z,62.52
2018-04-16T02:28:53.898Z,62.06
2018-04-16T02:31:28.144Z,60.40
2018-04-16T02:34:02.180Z,60.36
2018-04-16T02:36:36.251Z,60.74
2018-04-16T02:39:10.291Z,60.33
2018-04-16T02:41:44.244Z,61.07
2018-04-16T02:44:18.345Z,60.64
2018-04-16T02:46:52.216Z,60.99
2018-04-16T02:49:26.331Z,60.46
2018-04-16T02:52:00.355Z,60.00
2018-04-16T02:54:34.369Z,60.30
2018-04-16T02:57:08.446Z,61.27
2018-04-16T02:59:42.548Z,60.37
2018-04-16T03:02:16.617Z,61.08
2018-04-16T03:04:50.666Z,60.96
2018-04-16T03:07:24.755Z,60.86
2018-04-16T03:09:59.030Z,61.05
2018-04-16T03:12:33.126Z,61.86
2018-04-16T03:15:07.182Z,62.71
2018-04-16T03:17:41.269Z,62.60
2018-04-16T03:20:15.186Z,61.62
2018-04-16T03:22:49.150Z,62.13
2018-04-16T03:25:23.248Z,62.71
2018-04-16T03:27:57.233Z,64.05
2018-04-16T03:30:31.158Z,64.41
2018-04-16T03:33:05.131Z,65.12
2018-04-16T03:35:39.315Z,64.23
2018-04-16T03:38:13.291Z,65.27
2018-04-16T03:40:47.241Z,64.89
2018-04-16T03:43:21.357Z,64.50
2018-04-16T03:45:55.398Z,64.40
2018-04-16T03:48:29.887Z,65.91
2018-04-16T03:54:12.675Z,65.69
2018-04-16T03:56:41.048Z,65.34
2018-04-16T03:59:09.545Z,64.30
2018-04-16T04:01:37.965Z,63.85
2018-04-16T04:04:06.347Z,65.12
2018-04-16T04:06:34.735Z,64.99
2018-04-16T04:09:03.119Z,65.23
2018-04-16T04:11:31.563Z,65.14
2018-04-16T04:13:59.941Z,64.43
2018-04-16T04:16:28.322Z,64.37
2018-04-16T04:18:56.799Z,65.73
2018-04-16T04:21:25.739Z,64.37
2018-04-16T04:24:05.788Z,65.72
2018-04-16T04:26:45.847Z,65.70
2018-04-16T04:29:26.015Z,65.89
2018-04-16T04:31:54.386Z,65.56
2018-04-16T04:34:22.871Z,65.63
2018-04-16T04:36:51.249Z,66.51
2018-04-16T04:39:19.667Z,65.11
2018-04-16T04:41:48.028Z,65.00
2018-04-16T04:44:16.409Z,63.29
2018-04-16T04:46:44.903Z,62.70
2018-04-16T04:49:13.320Z,64.25
2018-04-16T04:51:41.686Z,63.92
2018-04-16T04:54:10.060Z,63.70
2018-04-16T04:56:38.439Z,63.40
2018-04-16T04:59:06.900Z,62.77
2018-04-16T05:01:35.366Z,62.53
2018-04-16T05:04:03.792Z,62.81
2018-04-16T05:06:32.368Z,60.12
2018-04-16T05:09:00.734Z,60.70
2018-04-16T05:11:29.156Z,61.85
2018-04-16T05:13:57.568Z,60.50
2018-04-16T05:16:26.215Z,59.94
2018-04-16T05:18:54.742Z,59.41
2018-04-16T05:21:23.176Z,59.53
2018-04-16T05:23:51.605Z,59.76
2018-04-16T05:26:19.995Z,60.39
2018-04-16T05:28:48.452Z,59.64
2018-04-16T05:31:16.915Z,59.26
2018-04-16T05:33:45.323Z,59.19
2018-04-16T05:36:13.705Z,59.20
2018-04-16T05:38:42.215Z,58.21
2018-04-16T05:41:10.656Z,58.70
2018-04-16T05:43:39.059Z,58.45
2018-04-16T05:46:07.507Z,58.17
2018-04-16T05:48:35.936Z,59.41
2018-04-16T05:51:04.504Z,58.05
2018-04-16T05:53:32.909Z,58.89
2018-04-16T05:56:01.385Z,58.38
2018-04-16T05:58:29.828Z,58.11
2018-04-16T06:00:58.222Z,58.05
2018-04-16T06:03:26.678Z,56.78
2018-04-16T06:05:55.095Z,58.60
2018-04-16T06:08:23.532Z,56.77
2018-04-16T06:10:52.046Z,56.03
2018-04-16T06:13:20.460Z,55.44
2018-04-16T06:15:48.920Z,53.32
2018-04-16T06:18:17.363Z,49.44
2018-04-16T06:20:45.787Z,46.54
2018-04-16T06:23:14.185Z,42.00
2018-04-16T06:25:42.616Z,40.50
2018-04-16T06:28:11.092Z,38.17
2018-04-16T06:30:39.491Z,40.00
2018-04-16T06:33:07.968Z,40.19
2018-04-16T06:35:36.352Z,40.12
2018-04-16T06:38:04.772Z,38.15
2018-04-16T06:40:33.176Z,37.00
2018-04-16T06:43:01.571Z,37.23
2018-04-16T06:45:30.030Z,35.42
2018-04-16T06:47:58.426Z,33.57
2018-04-16T06:50:26.889Z,32.34
2018-04-16T06:52:55.271Z,31.21
2018-04-16T06:55:23.962Z,30.32
2018-04-16T06:57:52.339Z,30.02
2018-04-16T07:00:20.769Z,30.64
2018-04-16T07:02:49.228Z,28.05
2018-04-16T07:05:17.619Z,27.44
2018-04-16T07:07:46.049Z,26.95
2018-04-16T07:10:14.536Z,25.62
2018-04-16T07:12:42.904Z,26.73
2018-04-16T07:15:11.403Z,26.22
2018-04-16T07:17:39.799Z,26.31
2018-04-16T07:20:08.261Z,27.43
2018-04-16T07:22:36.714Z,26.21
2018-04-16T07:25:05.120Z,26.64
2018-04-16T07:27:33.521Z,26.51
2018-04-16T07:30:01.911Z,26.48
2018-04-16T07:32:30.319Z,26.37
2018-04-16T07:34:58.721Z,27.89
2018-04-16T07:37:27.216Z,25.19
2018-04-16T07:39:55.662Z,24.58
2018-04-16T07:42:24.067Z,26.78
2018-04-16T07:44:53.729Z,23.10
2018-04-16T07:47:22.423Z,23.76
2018-04-16T07:49:50.823Z,22.72
2018-04-16T07:54:49.802Z,21.27
2018-04-16T07:57:18.401Z,21.43
2018-04-16T07:59:46.784Z,22.58
2018-04-16T08:02:15.183Z,22.68
2018-04-16T08:04:43.670Z,23.73
2018-04-16T08:07:12.063Z,23.82
2018-04-16T08:09:40.528Z,21.74
2018-04-16T08:12:08.943Z,23.15
2018-04-16T08:14:37.340Z,23.88
2018-04-16T08:17:05.743Z,22.87
2018-04-16T08:19:34.137Z,24.52
2018-04-16T08:22:02.558Z,23.82
2018-04-16T08:24:30.974Z,23.60
2018-04-16T08:26:59.497Z,24.75
2018-04-16T08:29:27.909Z,22.75
2018-04-16T08:31:56.493Z,24.50
2018-04-16T08:34:31.037Z,24.26
2018-04-16T08:36:59.759Z,23.82
2018-04-16T08:39:28.244Z,22.61
2018-04-16T08:41:56.770Z,24.19
2018-04-16T08:44:25.182Z,23.33
2018-04-16T08:46:53.993Z,23.30
2018-04-16T08:49:22.393Z,22.35
2018-04-16T08:51:50.823Z,23.64
2018-04-16T08:54:19.249Z,25.35
2018-04-16T08:56:47.660Z,24.56
2018-04-16T08:59:16.076Z,23.26
2018-04-16T09:01:44.587Z,21.52
2018-04-16T09:04:16.001Z,22.64
2018-04-16T09:06:44.601Z,22.49
2018-04-16T09:09:13.014Z,24.01
2018-04-16T09:11:41.427Z,23.52
2018-04-16T09:14:09.799Z,22.85
2018-04-16T09:16:38.201Z,23.15
2018-04-16T09:19:06.583Z,22.19
2018-04-16T09:21:34.999Z,22.12
2018-04-16T09:24:03.446Z,23.00
2018-04-16T09:26:31.842Z,24.37
2018-04-16T09:29:00.215Z,23.92
2018-04-16T09:31:28.585Z,24.07
2018-04-16T09:33:57.053Z,23.72
2018-04-16T09:36:25.656Z,21.45
2018-04-16T09:38:54.045Z,21.05
2018-04-16T09:41:22.423Z,20.05
2018-04-16T09:43:51.307Z,21.01
2018-04-16T09:46:19.941Z,22.99
2018-04-16T09:48:48.488Z,25.24
2018-04-16T09:51:16.846Z,22.90
2018-04-16T09:53:45.481Z,22.26
2018-04-16T09:56:13.873Z,20.62
2018-04-16T09:58:42.267Z,21.88
2018-04-16T10:01:16.235Z,24.65
2018-04-16T10:03:44.671Z,26.38
2018-04-16T10:06:13.261Z,28.27
2018-04-16T10:08:41.655Z,28.10
2018-04-16T10:11:10.100Z,28.89
2018-04-16T10:13:38.887Z,28.84
2018-04-16T10:16:07.593Z,30.88
2018-04-16T10:18:36.045Z,30.92
2018-04-16T10:21:04.462Z,31.44
2018-04-16T10:23:32.892Z,30.13
2018-04-16T10:26:01.265Z,28.79
2018-04-16T10:28:29.748Z,28.82
2018-04-16T10:30:58.187Z,28.85
2018-04-16T10:33:26.603Z,28.44
2018-04-16T10:35:54.979Z,27.85
2018-04-16T10:38:23.395Z,24.82
2018-04-16T10:40:52.031Z,25.18
2018-04-16T10:43:20.451Z,26.30
2018-04-16T10:45:48.907Z,27.58
2018-04-16T10:48:17.327Z,28.58
2018-04-16T10:50:45.701Z,29.17
2018-04-16T10:53:14.099Z,28.52
2018-04-16T10:55:42.498Z,30.33
2018-04-16T10:58:10.959Z,31.03
2018-04-16T11:00:39.341Z,30.42
2018-04-16T11:03:07.732Z,27.74
2018-04-16T11:05:36.166Z,26.93
2018-04-16T11:08:04.543Z,27.32
2018-04-16T11:10:33.000Z,26.88
2018-04-16T11:13:01.429Z,28.78
2018-04-16T11:15:29.857Z,29.92
2018-04-16T11:17:58.381Z,30.17
2018-04-16T11:20:26.787Z,30.15
2018-04-16T11:22:55.174Z,28.04
2018-04-16T11:25:23.595Z,27.57
2018-04-16T11:27:52.005Z,25.64
2018-04-16T11:30:20.701Z,26.66
2018-04-16T11:32:49.558Z,26.47
2018-04-16T11:35:17.972Z,26.76
2018-04-16T11:37:46.383Z,30.43
2018-04-16T11:40:14.802Z,33.52
2018-04-16T11:42:43.220Z,34.58
2018-04-16T11:45:11.647Z,34.15
2018-04-16T11:47:40.024Z,33.89
2018-04-16T11:50:08.413Z,33.65
2018-04-16T11:52:37.668Z,34.13
2018-04-16T11:55:06.081Z,34.42
2018-04-16T11:57:34.527Z,35.18
2018-04-16T12:00:02.882Z,34.99
2018-04-16T12:02:31.519Z,34.13
2018-04-16T12:04:59.899Z,32.78
2018-04-16T12:07:28.302Z,33.27
2018-04-16T12:09:56.710Z,32.94
2018-04-16T12:12:25.110Z,32.58
2018-04-16T12:14:53.519Z,32.85
2018-04-16T12:17:21.898Z,30.78
2018-04-16T12:19:50.807Z,34.92
2018-04-16T12:22:19.849Z,35.52
2018-04-16T12:24:48.257Z,36.17
2018-04-16T12:27:16.654Z,37.76
2018-04-16T12:29:45.131Z,38.72
2018-04-16T12:32:13.588Z,40.02
2018-04-16T12:34:41.972Z,40.06
2018-04-16T12:37:10.371Z,40.67
2018-04-16T12:39:38.769Z,41.71
2018-04-16T12:42:07.977Z,40.40
2018-04-16T12:44:36.411Z,40.51
2018-04-16T12:47:04.823Z,42.18
2018-04-16T12:49:33.257Z,40.71
2018-04-16T12:52:01.683Z,39.79
2018-04-16T12:54:30.197Z,40.47
2018-04-16T12:56:58.618Z,40.46
2018-04-16T12:59:27.027Z,40.77
2018-04-16T13:01:55.519Z,41.34
2018-04-16T13:04:23.958Z,40.70
2018-04-16T13:06:52.321Z,39.50
2018-04-16T13:09:21.249Z,37.67
2018-04-16T13:11:49.724Z,35.48
2018-04-16T13:14:18.237Z,35.44
2018-04-16T13:16:46.652Z,35.72
2018-04-16T13:19:15.126Z,35.63
2018-04-16T13:21:45.492Z,36.91
2018-04-16T13:24:13.896Z,34.24
2018-04-16T13:26:42.463Z,33.67
2018-04-16T13:29:10.863Z,36.02
2018-04-16T13:31:39.385Z,35.87
2018-04-16T13:34:07.853Z,35.30
2018-04-16T13:36:36.298Z,35.59
2018-04-16T13:39:04.770Z,34.93
2018-04-16T13:41:33.188Z,36.24
2018-04-16T13:44:01.595Z,37.40
2018-04-16T13:46:30.179Z,37.71
2018-04-16T13:48:58.640Z,38.60
2018-04-16T13:51:27.043Z,37.57
2018-04-16T13:53:55.490Z,36.00
2018-04-16T13:56:23.959Z,35.70
2018-04-16T13:58:52.737Z,35.49
2018-04-16T14:01:21.458Z,36.85
2018-04-16T14:03:49.859Z,36.36
2018-04-16T14:06:18.370Z,36.72
2018-04-16T14:08:46.774Z,37.47
2018-04-16T14:11:15.176Z,38.14
2018-04-16T14:13:43.731Z,39.29
2018-04-16T14:16:12.151Z,38.34
2018-04-16T14:18:40.526Z,37.76
2018-04-16T14:21:09.719Z,37.22
2018-04-16T14:23:38.378Z,36.54
2018-04-16T14:26:07.284Z,37.12
2018-04-16T14:28:35.890Z,36.93
2018-04-16T14:31:04.625Z,36.81
2018-04-16T14:33:33.235Z,37.71
2018-04-16T14:36:01.883Z,36.99
2018-04-16T14:38:30.889Z,36.47
2018-04-16T14:40:59.587Z,36.06
2018-04-16T14:43:30.177Z,35.68
2018-04-16T14:45:58.806Z,35.11
2018-04-16T14:48:27.919Z,35.46
2018-04-16T14:50:56.333Z,35.34
2018-04-16T14:53:24.807Z,36.00
2018-04-16T14:55:53.376Z,36.65
2018-04-16T14:58:21.783Z,36.73
2018-04-16T15:00:50.210Z,37.48
2018-04-16T15:03:18.905Z,38.32
2018-04-16T15:05:47.309Z,37.75
2018-04-16T15:08:15.731Z,37.55
2018-04-16T15:10:44.141Z,39.56
2018-04-16T15:13:12.748Z,39.71
2018-04-16T15:15:41.317Z,39.78
2018-04-16T15:18:09.764Z,40.27
2018-04-16T15:20:40.106Z,39.49
2018-04-16T15:23:08.520Z,39.43
2018-04-16T15:25:36.919Z,39.74
2018-04-16T15:28:05.350Z,38.10
2018-04-16T15:30:33.770Z,40.24
2018-04-16T15:33:02.515Z,39.03
2018-04-16T15:35:31.199Z,39.15
2018-04-16T15:38:00.959Z,40.02
2018-04-16T15:40:29.441Z,39.66
2018-04-16T15:42:57.867Z,39.04
2018-04-16T15:45:26.322Z,39.42
2018-04-16T15:47:55.005Z,40.24
2018-04-16T15:50:23.428Z,39.08
2018-04-16T15:52:51.859Z,40.51
2018-04-16T15:55:21.241Z,40.36
2018-04-16T15:57:49.688Z,40.78
2018-04-16T16:00:18.101Z,41.48
2018-04-16T16:02:46.563Z,42.12
2018-04-16T16:05:21.951Z,40.97
2018-04-16T16:07:50.393Z,40.82
2018-04-16T16:10:19.157Z,41.74
2018-04-16T16:12:47.598Z,41.99
2018-04-16T16:15:16.035Z,42.93
2018-04-16T16:17:45.515Z,43.51
2018-04-16T16:20:14.006Z,42.81
2018-04-16T16:22:42.441Z,43.42
2018-04-16T16:25:10.849Z,43.90
2018-04-16T16:27:39.283Z,43.25
2018-04-16T16:30:07.824Z,42.69
2018-04-16T16:32:36.497Z,43.45
2018-04-16T16:35:04.925Z,43.59
2018-04-16T16:37:33.303Z,43.36
2018-04-16T16:40:01.865Z,43.65
2018-04-16T16:42:30.251Z,42.66
2018-04-16T16:44:58.646Z,42.63
2018-04-16T16:47:27.022Z,42.39
2018-04-16T16:49:55.401Z,43.17
2018-04-16T16:52:23.849Z,43.33
2018-04-16T16:54:52.614Z,42.12
2018-04-16T16:57:21.088Z,43.06
2018-04-16T16:59:49.499Z,43.20
2018-04-16T17:02:19.151Z,43.68
2018-04-16T17:04:48.211Z,43.94
2018-04-16T17:07:16.629Z,42.29
2018-04-16T17:09:45.062Z,42.15
2018-04-16T17:12:13.468Z,41.90
2018-04-16T17:14:41.876Z,42.27
2018-04-16T17:17:10.291Z,42.51
2018-04-16T17:19:38.742Z,42.85
2018-04-16T17:22:07.201Z,43.87
2018-04-16T17:24:35.625Z,44.72
2018-04-16T17:27:04.035Z,44.48
2018-04-16T17:29:32.456Z,45.16
2018-04-16T17:32:00.872Z,43.91
2018-04-16T17:34:29.291Z,42.70
2018-04-16T17:36:57.683Z,43.18
2018-04-16T17:39:26.203Z,42.68
2018-04-16T17:41:55.574Z,43.33
2018-04-16T17:44:25.237Z,43.28
2018-04-16T17:46:53.661Z,42.74
2018-04-16T17:49:22.067Z,43.87
2018-04-16T17:51:50.871Z,43.78
2018-04-16T17:54:23.788Z,43.35
2018-04-16T17:56:52.284Z,43.92
2018-04-16T17:59:20.713Z,44.13
2018-04-16T18:01:49.636Z,43.47
2018-04-16T18:04:18.144Z,43.85
2018-04-16T18:06:46.634Z,43.77
2018-04-16T18:09:15.119Z,43.55
2018-04-16T18:11:43.632Z,44.50
2018-04-16T18:14:12.064Z,43.99
2018-04-16T18:16:40.533Z,44.75
2018-04-16T18:19:08.968Z,44.44
2018-04-16T18:21:37.424Z,43.58
2018-04-16T18:24:05.894Z,44.06
2018-04-16T18:26:34.544Z,45.16
2018-04-16T18:29:02.967Z,45.00
2018-04-16T18:31:31.783Z,44.65
2018-04-16T18:34:00.515Z,45.09
2018-04-16T18:36:30.224Z,44.86
2018-04-16T18:38:58.934Z,45.26
2018-04-16T18:41:27.480Z,45.66
2018-04-16T18:43:56.691Z,45.33
2018-04-16T18:46:27.177Z,46.06
2018-04-16T18:48:55.676Z,45.46
2018-04-16T18:51:24.871Z,45.46
2018-04-16T18:53:53.563Z,45.29
2018-04-16T18:56:23.505Z,45.90
2018-04-16T18:58:52.125Z,47.15
2018-04-16T19:01:20.670Z,47.92
2018-04-16T19:03:49.202Z,48.15
2018-04-16T19:06:17.660Z,48.12
2018-04-16T19:08:46.114Z,49.24
2018-04-16T19:11:14.563Z,48.70
2018-04-16T19:13:43.067Z,49.92
2018-04-16T19:16:11.540Z,50.41
2018-04-16T19:18:40.240Z,51.20
2018-04-16T19:21:14.219Z,51.88
2018-04-16T19:23:43.399Z,53.31
2018-04-16T19:26:11.804Z,54.46
2018-04-16T19:28:40.333Z,54.80
2018-04-16T19:31:08.733Z,55.42
2018-04-16T19:33:42.694Z,55.33
2018-04-16T19:36:11.186Z,56.07
2018-04-16T19:38:39.773Z,55.34
2018-04-16T19:41:08.489Z,55.73
2018-04-16T19:43:37.088Z,54.94
2018-04-16T19:46:05.998Z,55.33
2018-04-16T19:48:42.765Z,55.94
2018-04-16T19:51:11.151Z,55.30
2018-04-16T19:53:39.663Z,56.90
2018-04-16T19:56:14.034Z,57.75
2018-04-16T19:58:42.479Z,57.06
2018-04-16T20:01:11.196Z,56.74
2018-04-16T20:03:45.262Z,57.27
2018-04-16T20:06:13.697Z,56.59
2018-04-16T20:08:42.149Z,56.98
2018-04-16T20:11:10.557Z,56.92
2018-04-16T20:13:39.835Z,56.86
2018-04-16T20:16:08.433Z,57.38
2018-04-16T20:18:36.835Z,57.97
2018-04-16T20:21:05.435Z,57.81
2018-04-16T20:23:33.826Z,58.28
2018-04-16T20:26:02.335Z,58.39
2018-04-16T20:28:30.753Z,58.29
2018-04-16T20:30:59.201Z,58.26
2018-04-16T20:33:27.609Z,58.48
2018-04-16T20:35:56.084Z,57.75
2018-04-16T20:38:24.661Z,57.71
2018-04-16T20:40:53.084Z,58.22
2018-04-16T20:43:21.549Z,58.56
2018-04-16T20:45:49.943Z,58.21
2018-04-16T20:48:18.366Z,57.88
2018-04-16T20:50:46.849Z,57.60
2018-04-16T20:53:15.275Z,57.73
2018-04-16T20:55:43.689Z,58.87
2018-04-16T20:58:12.095Z,59.67
2018-04-16T21:00:40.503Z,57.97
2018-04-16T21:03:08.943Z,58.91
2018-04-16T21:05:37.377Z,58.34
2018-04-16T21:08:06.137Z,59.61
2018-04-16T21:10:34.508Z,59.72
2018-04-16T21:13:02.885Z,60.25
2018-04-16T21:15:34.424Z,59.66
2018-04-16T21:18:02.834Z,60.12
2018-04-16T21:20:31.406Z,60.72
2018-04-16T21:22:59.828Z,61.47
2018-04-16T21:25:28.336Z,62.38
2018-04-16T21:27:56.719Z,61.75
2018-04-16T21:30:25.258Z,63.13
2018-04-16T21:32:53.689Z,62.33
2018-04-16T21:35:22.110Z,62.11
2018-04-16T21:37:50.525Z,60.74
2018-04-16T21:40:18.943Z,61.78
2018-04-16T21:42:47.369Z,61.13
2018-04-16T21:45:15.846Z,61.75
2018-04-16T21:47:44.248Z,60.14
2018-04-16T21:50:12.650Z,61.09
2018-04-16T21:52:41.079Z,60.54
2018-04-16T21:55:09.582Z,59.95
2018-04-16T21:57:38.668Z,61.62
2018-04-16T22:00:07.083Z,60.70
2018-04-16T22:02:35.472Z,60.82
2018-04-16T22:05:03.875Z,60.83
2018-04-16T22:07:32.286Z,61.59
2018-04-16T22:10:00.731Z,61.74
2018-04-16T22:12:29.110Z,61.24
2018-04-16T22:14:57.648Z,61.93
2018-04-16T22:17:26.068Z,61.83
2018-04-16T22:19:54.503Z,60.83
2018-04-16T22:22:22.961Z,61.37
2018-04-16T22:24:51.369Z,63.26
2018-04-16T22:27:19.883Z,61.91
2018-04-16T22:29:48.365Z,62.13
2018-04-16T22:32:16.774Z,62.15
2018-04-16T22:34:45.215Z,62.23
2018-04-16T22:37:13.623Z,61.81
2018-04-16T22:39:42.071Z,60.87
2018-04-16T22:42:10.476Z,60.76
2018-04-16T22:44:38.888Z,60.70
2018-04-16T22:47:07.304Z,61.62
2018-04-16T22:49:35.711Z,61.23
2018-04-16T22:52:04.139Z,62.34
2018-04-16T22:54:32.513Z,62.59
2018-04-16T22:57:00.962Z,62.26
2018-04-16T22:59:29.377Z,63.37
2018-04-16T23:01:57.875Z,62.42
2018-04-16T23:04:26.283Z,63.35
2018-04-16T23:06:54.690Z,62.76
2018-04-16T23:09:23.126Z,63.64
2018-04-16T23:11:51.511Z,64.08
2018-04-16T23:14:20.100Z,63.37
2018-04-16T23:16:48.487Z,62.55
2018-04-16T23:19:17.641Z,63.03
2018-04-16T23:21:46.070Z,62.78
2018-04-16T23:24:14.440Z,61.82
2018-04-16T23:26:42.880Z,62.99
2018-04-16T23:29:11.250Z,62.39
2018-04-16T23:31:39.637Z,61.96
2018-04-16T23:34:08.030Z,64.30
2018-04-16T23:36:36.954Z,62.43
2018-04-16T23:39:06.674Z,61.65
2018-04-16T23:41:35.311Z,61.92
2018-04-16T23:44:03.800Z,61.47
2018-04-16T23:46:32.171Z,61.95
2018-04-16T23:49:00.551Z,62.63
2018-04-16T23:51:28.986Z,62.71
2018-04-16T23:53:57.376Z,62.35
2018-04-16T23:56:25.747Z,63.05
2018-04-16T23:58:54.131Z,63.85
